Time;durP1;ratioP1;P1;durP2;ratioP2;P2;SDS_P1;SDS_P2;PMS_P1;PMS_P2;Temp;Humidity;BMP_temperature;BMP_pressure;BME280_temperature;BME280_humidity;BME280_pressure;Samples;Min_cycle;Max_cycle;Signal;HPM_P1;HPM_P2
2021/06/24 00:00:58;;;;;;;4.05;2.72;;;21.20;99.90;;;;;;5108862;28;20199;-71
2021/06/24 00:03:26;;;;;;;3.88;2.25;;;21.20;99.90;;;;;;5112395;28;20569;-71
2021/06/24 00:05:53;;;;;;;3.35;2.15;;;21.20;99.90;;;;;;5103980;28;20212;-72
2021/06/24 00:08:22;;;;;;;5.45;2.97;;;21.10;99.90;;;;;;5091299;28;20201;-72
2021/06/24 00:10:50;;;;;;;2.58;2.17;;;21.10;99.90;;;;;;5103210;28;20220;-72
2021/06/24 00:13:18;;;;;;;2.92;2.70;;;21.10;99.90;;;;;;5091581;28;20201;-71
2021/06/24 00:15:46;;;;;;;3.08;2.88;;;21.10;99.90;;;;;;5091700;28;20549;-71
2021/06/24 00:18:13;;;;;;;2.60;2.00;;;21.10;99.90;;;;;;5100413;28;20204;-72
2021/06/24 00:20:42;;;;;;;2.65;2.45;;;21.10;99.90;;;;;;5111858;28;20199;-71
2021/06/24 00:23:09;;;;;;;2.65;2.40;;;21.10;99.90;;;;;;5101270;28;20576;-71
2021/06/24 00:25:37;;;;;;;2.85;1.95;;;21.00;99.90;;;;;;5111478;28;20196;-72
2021/06/24 00:28:04;;;;;;;3.13;2.38;;;21.00;99.90;;;;;;5098624;28;20216;-72
2021/06/24 00:30:34;;;;;;;2.83;2.58;;;21.00;99.90;;;;;;5091199;28;20213;-71
2021/06/24 00:33:00;;;;;;;2.78;2.58;;;21.00;99.90;;;;;;5091039;28;20205;-72
2021/06/24 00:35:27;;;;;;;3.42;2.22;;;21.00;99.90;;;;;;5103216;28;20197;-71
2021/06/24 00:37:54;;;;;;;2.55;2.08;;;21.00;99.90;;;;;;5091225;28;20208;-72
2021/06/24 00:40:21;;;;;;;1.80;1.70;;;21.00;99.90;;;;;;5096149;28;20189;-71
2021/06/24 00:42:49;;;;;;;2.22;2.00;;;21.00;99.90;;;;;;5112279;28;20197;-71
2021/06/24 00:45:16;;;;;;;2.13;1.77;;;21.00;99.90;;;;;;5112274;28;20531;-71
2021/06/24 00:47:43;;;;;;;3.42;1.80;;;21.00;99.90;;;;;;5098778;28;20197;-71
2021/06/24 00:50:12;;;;;;;2.42;2.22;;;21.00;99.90;;;;;;5092018;28;20268;-71
2021/06/24 00:52:39;;;;;;;2.40;2.15;;;21.00;99.90;;;;;;5107740;28;20216;-71
2021/06/24 00:55:07;;;;;;;1.88;1.75;;;21.00;99.90;;;;;;5102811;28;20629;-71
2021/06/24 00:57:35;;;;;;;2.72;2.28;;;20.90;99.90;;;;;;5093835;28;20232;-71
2021/06/24 01:00:04;;;;;;;2.53;2.33;;;20.90;99.90;;;;;;5106117;28;20196;-71
2021/06/24 01:02:32;;;;;;;2.38;2.05;;;20.90;99.90;;;;;;5106763;28;20196;-71
2021/06/24 01:04:58;;;;;;;2.35;2.15;;;20.90;99.90;;;;;;5116479;28;20208;-70
2021/06/24 01:07:25;;;;;;;2.40;2.20;;;20.90;99.90;;;;;;5101620;28;20193;-71
2021/06/24 01:09:52;;;;;;;3.05;1.95;;;20.90;99.90;;;;;;5095837;28;20204;-71
2021/06/24 01:12:21;;;;;;;2.65;2.45;;;20.90;99.90;;;;;;5107480;28;20213;-71
2021/06/24 01:14:49;;;;;;;3.65;2.30;;;20.80;99.90;;;;;;5096030;28;20208;-70
2021/06/24 01:17:18;;;;;;;3.42;2.30;;;20.80;99.90;;;;;;5095599;28;20202;-70
2021/06/24 01:19:44;;;;;;;4.38;2.80;;;20.80;99.90;;;;;;5095559;28;20677;-70
2021/06/24 01:22:12;;;;;;;2.58;2.20;;;20.80;99.90;;;;;;5109786;28;20197;-71
2021/06/24 01:24:40;;;;;;;1.73;1.63;;;20.80;99.90;;;;;;5097920;28;20255;-70
2021/06/24 01:27:07;;;;;;;1.90;1.80;;;20.80;99.90;;;;;;5095828;28;20989;-69
2021/06/24 01:29:34;;;;;;;3.72;2.10;;;20.80;99.90;;;;;;5113563;28;20189;-70
2021/06/24 01:32:01;;;;;;;3.67;2.40;;;20.80;99.90;;;;;;5110692;28;20213;-71
2021/06/24 01:34:27;;;;;;;1.85;1.70;;;20.80;99.90;;;;;;5094426;28;20204;-70
2021/06/24 01:36:54;;;;;;;2.88;2.40;;;20.80;99.90;;;;;;5111370;28;20203;-71
2021/06/24 01:39:21;;;;;;;3.10;2.20;;;20.70;99.90;;;;;;5114503;28;20204;-70
2021/06/24 01:41:56;;;;;;;3.72;3.35;;;20.80;99.90;;;;;;5104779;28;20185;-70
2021/06/24 01:44:31;;;;;;;3.25;2.28;;;20.70;99.90;;;;;;5094487;28;20189;-70
2021/06/24 01:46:58;;;;;;;3.53;2.40;;;20.70;99.90;;;;;;5095408;28;20201;-70
2021/06/24 01:49:25;;;;;;;3.75;2.10;;;20.70;99.90;;;;;;5114348;28;20263;-70
2021/06/24 01:51:52;;;;;;;2.35;2.15;;;20.70;99.90;;;;;;5101704;28;20225;-71
2021/06/24 01:54:19;;;;;;;2.40;2.20;;;20.70;99.90;;;;;;5094351;28;20205;-71
2021/06/24 01:56:46;;;;;;;2.08;1.88;;;20.60;99.90;;;;;;5097301;28;20647;-71
2021/06/24 01:59:14;;;;;;;2.20;2.00;;;20.60;99.90;;;;;;5111912;28;20200;-70
2021/06/24 02:01:41;;;;;;;3.13;2.55;;;20.60;99.90;;;;;;5108099;28;20193;-70
2021/06/24 02:04:08;;;;;;;2.85;2.10;;;20.60;99.90;;;;;;5095524;28;20193;-70
2021/06/24 02:06:35;;;;;;;2.10;1.90;;;20.60;99.90;;;;;;5094607;28;20201;-71
2021/06/24 02:09:01;;;;;;;5.13;2.55;;;20.60;99.90;;;;;;5094388;28;20201;-71
2021/06/24 02:11:28;;;;;;;2.58;2.38;;;20.60;99.90;;;;;;5096599;28;20221;-69
2021/06/24 02:13:55;;;;;;;2.90;2.70;;;20.60;99.90;;;;;;5106177;28;20201;-70
2021/06/24 02:16:23;;;;;;;3.80;2.47;;;20.60;99.90;;;;;;5094026;28;20228;-71
2021/06/24 02:18:50;;;;;;;2.58;2.38;;;20.60;99.90;;;;;;5093861;28;20304;-70
2021/06/24 02:21:16;;;;;;;2.90;2.60;;;20.60;99.90;;;;;;5094600;28;20208;-71
2021/06/24 02:23:43;;;;;;;3.47;2.15;;;20.60;99.90;;;;;;5094169;28;20217;-71
2021/06/24 02:26:10;;;;;;;3.40;2.60;;;20.50;99.90;;;;;;5094127;28;20203;-71
2021/06/24 02:28:37;;;;;;;2.83;2.42;;;20.50;99.90;;;;;;5107067;28;20222;-71
2021/06/24 02:31:03;;;;;;;2.53;2.30;;;20.50;99.90;;;;;;5093943;28;20229;-71
2021/06/24 02:33:32;;;;;;;2.47;2.15;;;20.50;99.90;;;;;;5094225;28;20243;-70
2021/06/24 02:35:59;;;;;;;4.65;2.20;;;20.50;99.90;;;;;;5093877;28;20209;-70
2021/06/24 02:38:26;;;;;;;3.50;2.35;;;20.50;99.90;;;;;;5109790;28;20559;-70
2021/06/24 02:40:53;;;;;;;2.80;2.28;;;20.50;99.90;;;;;;5105207;28;20201;-71
2021/06/24 02:43:20;;;;;;;3.20;2.25;;;20.50;99.90;;;;;;5093763;28;20193;-71
2021/06/24 02:45:47;;;;;;;3.42;2.53;;;20.50;99.90;;;;;;5099058;28;21016;-71
2021/06/24 02:48:13;;;;;;;3.15;2.10;;;20.50;99.90;;;;;;5093768;28;20205;-72
2021/06/24 02:50:42;;;;;;;2.50;2.30;;;20.50;99.90;;;;;;5095898;28;20205;-72
2021/06/24 02:53:08;;;;;;;5.18;2.40;;;20.50;99.90;;;;;;5093518;28;20212;-71
2021/06/24 02:55:35;;;;;;;2.95;2.35;;;20.40;99.90;;;;;;5093562;28;20193;-72
2021/06/24 02:58:02;;;;;;;3.10;2.70;;;20.40;99.90;;;;;;5093257;28;20229;-71
2021/06/24 03:00:29;;;;;;;2.58;2.38;;;20.40;99.90;;;;;;5105227;28;20200;-71
2021/06/24 03:02:56;;;;;;;4.63;2.72;;;20.40;99.90;;;;;;5093400;28;20239;-71
2021/06/24 03:05:23;;;;;;;3.25;2.20;;;20.40;99.90;;;;;;5092857;28;20201;-72
2021/06/24 03:07:51;;;;;;;2.45;2.25;;;20.40;99.90;;;;;;5092335;28;20208;-72
2021/06/24 03:10:20;;;;;;;3.80;2.42;;;20.40;99.90;;;;;;5092538;28;20204;-71
2021/06/24 03:12:47;;;;;;;2.20;2.00;;;20.40;99.90;;;;;;5099761;28;20208;-71
2021/06/24 03:15:14;;;;;;;2.85;2.25;;;20.40;99.90;;;;;;5102231;28;20193;-71
2021/06/24 03:17:41;;;;;;;3.20;1.90;;;20.40;99.90;;;;;;5092504;28;20204;-71
2021/06/24 03:20:10;;;;;;;3.88;3.35;;;20.30;99.90;;;;;;5091975;28;20197;-71
2021/06/24 03:22:37;;;;;;;4.88;2.53;;;20.30;99.90;;;;;;5094057;28;20634;-70
2021/06/24 03:25:07;;;;;;;5.18;2.80;;;20.30;99.90;;;;;;5101980;28;20520;-71
2021/06/24 03:27:34;;;;;;;5.30;2.70;;;20.30;99.90;;;;;;5092299;28;20212;-71
2021/06/24 03:30:01;;;;;;;5.22;2.55;;;20.30;99.90;;;;;;5098957;28;20201;-71
2021/06/24 03:32:28;;;;;;;3.63;2.60;;;20.30;99.90;;;;;;5094361;28;20225;-71
2021/06/24 03:34:54;;;;;;;3.67;2.65;;;20.30;99.90;;;;;;5092339;28;20951;-71
2021/06/24 03:37:21;;;;;;;5.90;2.60;;;20.30;99.90;;;;;;5105365;28;20196;-71
2021/06/24 03:39:48;;;;;;;2.80;2.60;;;20.30;99.90;;;;;;5092548;28;20208;-71
2021/06/24 03:42:16;;;;;;;3.17;2.35;;;20.30;99.90;;;;;;5101396;28;20212;-71
2021/06/24 03:44:43;;;;;;;4.10;2.50;;;20.30;99.90;;;;;;5109217;28;20193;-71
2021/06/24 03:47:10;;;;;;;2.58;2.33;;;20.30;99.90;;;;;;5111728;28;20530;-71
2021/06/24 03:49:36;;;;;;;2.70;2.45;;;20.30;99.90;;;;;;5093965;28;20189;-72
2021/06/24 03:52:04;;;;;;;2.40;1.90;;;20.20;99.90;;;;;;5091731;28;20217;-72
2021/06/24 03:54:31;;;;;;;4.22;2.90;;;20.20;99.90;;;;;;5112570;28;20541;-71
2021/06/24 03:56:58;;;;;;;3.13;2.40;;;20.20;99.90;;;;;;5112307;28;20293;-71
2021/06/24 03:59:26;;;;;;;2.75;2.13;;;20.20;99.90;;;;;;5093422;28;20201;-71
2021/06/24 04:01:52;;;;;;;2.83;2.55;;;20.20;99.90;;;;;;5092176;28;20654;-71
2021/06/24 04:04:19;;;;;;;6.20;3.00;;;20.20;99.90;;;;;;5092535;28;20208;-71
2021/06/24 04:06:46;;;;;;;6.32;2.70;;;20.20;99.90;;;;;;5092373;28;20215;-71
2021/06/24 04:09:14;;;;;;;2.70;2.25;;;20.10;99.90;;;;;;5108559;28;20196;-71
2021/06/24 04:11:40;;;;;;;3.60;2.33;;;20.10;99.90;;;;;;5111241;28;20664;-70
2021/06/24 04:14:07;;;;;;;2.50;2.30;;;20.10;99.90;;;;;;5102171;28;20633;-70
2021/06/24 04:16:35;;;;;;;3.15;2.35;;;20.10;99.90;;;;;;5091832;28;20660;-70
2021/06/24 04:19:02;;;;;;;2.10;1.90;;;20.10;99.90;;;;;;5101589;28;20211;-70
2021/06/24 04:21:28;;;;;;;4.45;2.42;;;20.10;99.90;;;;;;5112510;28;20204;-70
2021/06/24 04:23:55;;;;;;;3.47;2.50;;;20.10;99.90;;;;;;5095444;28;20213;-70
2021/06/24 04:26:23;;;;;;;6.68;2.40;;;20.10;99.90;;;;;;5092082;28;20555;-70
2021/06/24 04:28:50;;;;;;;3.50;2.92;;;20.10;99.90;;;;;;5091934;28;20621;-70
2021/06/24 04:31:16;;;;;;;3.60;2.70;;;20.10;99.90;;;;;;5096938;28;20888;-70
2021/06/24 04:33:44;;;;;;;7.57;2.60;;;20.10;99.90;;;;;;5099571;28;20228;-70
2021/06/24 04:36:11;;;;;;;4.80;2.75;;;20.10;99.90;;;;;;5091561;28;20661;-71
2021/06/24 04:38:38;;;;;;;3.05;2.75;;;20.10;99.90;;;;;;5092772;28;20220;-70
2021/06/24 04:41:05;;;;;;;3.58;2.50;;;20.10;99.90;;;;;;5095916;28;20201;-71
2021/06/24 04:43:31;;;;;;;2.60;2.40;;;20.10;99.90;;;;;;5091936;28;20197;-70
2021/06/24 04:45:59;;;;;;;4.93;2.83;;;20.00;99.90;;;;;;5091442;28;20201;-70
2021/06/24 04:48:25;;;;;;;2.40;2.20;;;20.00;99.90;;;;;;5091378;28;20197;-70
2021/06/24 04:50:53;;;;;;;4.95;2.92;;;20.00;99.90;;;;;;5093980;28;20197;-70
2021/06/24 04:53:20;;;;;;;4.50;2.90;;;20.00;99.90;;;;;;5100889;28;20222;-70
2021/06/24 04:55:47;;;;;;;2.97;2.67;;;20.00;99.90;;;;;;5101166;28;20192;-70
2021/06/24 04:58:14;;;;;;;4.00;2.30;;;20.00;99.90;;;;;;5103080;28;20229;-70
2021/06/24 05:00:40;;;;;;;3.35;2.80;;;20.00;99.90;;;;;;5104167;28;20270;-70
2021/06/24 05:03:10;;;;;;;2.85;2.47;;;20.00;99.90;;;;;;5110734;28;20197;-69
2021/06/24 05:05:37;;;;;;;4.55;2.15;;;20.00;99.90;;;;;;5104955;28;20193;-71
2021/06/24 05:08:10;;;;;;;2.83;2.58;;;20.00;99.90;;;;;;5099852;28;20401;-70
2021/06/24 05:10:36;;;;;;;3.13;2.83;;;20.00;99.90;;;;;;5110978;28;20201;-70
2021/06/24 05:13:03;;;;;;;3.55;3.17;;;20.10;99.90;;;;;;5107137;28;20244;-70
2021/06/24 05:15:30;;;;;;;5.50;2.67;;;20.00;99.90;;;;;;5090461;28;20205;-70
2021/06/24 05:17:57;;;;;;;4.10;3.70;;;20.00;99.90;;;;;;5098627;28;20203;-70
2021/06/24 05:20:24;;;;;;;3.97;3.10;;;20.00;99.90;;;;;;5111001;28;20200;-70
2021/06/24 05:22:51;;;;;;;4.03;3.00;;;20.00;99.90;;;;;;5099783;28;20197;-70
2021/06/24 05:25:19;;;;;;;7.43;4.30;;;20.00;99.90;;;;;;5090584;28;20511;-70
2021/06/24 05:27:46;;;;;;;4.25;3.20;;;20.00;99.90;;;;;;5094842;28;20196;-70
2021/06/24 05:30:13;;;;;;;4.03;3.55;;;20.00;99.90;;;;;;5110487;28;20212;-70
2021/06/24 05:32:40;;;;;;;8.07;4.13;;;20.00;99.90;;;;;;5109840;28;20223;-70
2021/06/24 05:35:09;;;;;;;4.80;3.40;;;20.00;99.90;;;;;;5110807;28;20199;-70
2021/06/24 05:37:35;;;;;;;7.00;3.80;;;20.00;99.90;;;;;;5091352;28;20263;-70
2021/06/24 05:40:02;;;;;;;9.75;4.82;;;20.00;99.90;;;;;;5099901;28;20198;-70
2021/06/24 05:42:30;;;;;;;4.53;2.88;;;20.00;99.90;;;;;;5106279;28;20197;-71
2021/06/24 05:44:57;;;;;;;4.93;2.80;;;20.00;99.90;;;;;;5094341;28;20292;-70
2021/06/24 05:47:24;;;;;;;4.47;3.03;;;20.00;99.90;;;;;;5094101;28;20212;-70
2021/06/24 05:49:51;;;;;;;2.65;2.45;;;20.00;99.90;;;;;;5094331;28;20212;-70
2021/06/24 05:52:17;;;;;;;5.43;3.25;;;20.00;99.90;;;;;;5104992;28;20223;-70
2021/06/24 05:54:44;;;;;;;3.67;2.67;;;20.00;99.90;;;;;;5113186;28;20196;-71
2021/06/24 05:57:11;;;;;;;3.88;2.97;;;20.00;99.90;;;;;;5110159;28;20221;-71
2021/06/24 05:59:39;;;;;;;4.50;2.63;;;20.00;99.90;;;;;;5096997;28;20536;-71
2021/06/24 06:02:06;;;;;;;4.60;2.88;;;20.00;99.90;;;;;;5114304;28;20200;-70
2021/06/24 06:04:32;;;;;;;2.67;2.45;;;20.00;99.90;;;;;;5096854;28;20194;-70
2021/06/24 06:06:59;;;;;;;4.32;3.35;;;20.00;99.90;;;;;;5093795;28;20220;-70
2021/06/24 06:09:26;;;;;;;6.50;3.05;;;20.00;99.90;;;;;;5093629;28;20205;-70
2021/06/24 06:11:53;;;;;;;2.70;2.40;;;20.00;99.90;;;;;;5099412;28;20205;-71
2021/06/24 06:14:20;;;;;;;4.00;2.80;;;20.00;99.90;;;;;;5112660;28;20228;-70
2021/06/24 06:16:48;;;;;;;2.65;2.42;;;19.90;99.90;;;;;;5115409;28;20637;-70
2021/06/24 06:19:15;;;;;;;13.10;4.13;;;19.90;99.90;;;;;;5114681;28;20192;-70
2021/06/24 06:21:42;;;;;;;7.88;3.35;;;19.90;99.90;;;;;;5094904;28;20854;-71
2021/06/24 06:24:09;;;;;;;5.68;3.88;;;19.90;99.90;;;;;;5094684;28;20216;-69
2021/06/24 06:26:35;;;;;;;9.10;3.42;;;19.90;99.90;;;;;;5108621;28;20348;-70
2021/06/24 06:29:05;;;;;;;4.88;2.60;;;19.90;99.90;;;;;;5114874;28;20628;-71
2021/06/24 06:31:33;;;;;;;4.93;2.65;;;19.90;99.90;;;;;;5095691;28;20249;-70
2021/06/24 06:34:01;;;;;;;4.05;3.03;;;19.90;99.90;;;;;;5094697;28;20273;-70
2021/06/24 06:36:27;;;;;;;4.75;3.13;;;19.90;99.90;;;;;;5100305;27;20208;-70
2021/06/24 06:38:54;;;;;;;10.15;3.40;;;19.90;99.90;;;;;;5112619;28;20192;-70
2021/06/24 06:41:21;;;;;;;3.47;3.00;;;19.90;99.90;;;;;;5103992;27;20196;-70
2021/06/24 06:43:48;;;;;;;3.92;2.60;;;19.90;99.90;;;;;;5105093;28;20197;-70
2021/06/24 06:46:14;;;;;;;3.17;2.67;;;19.90;99.90;;;;;;5107524;28;20200;-70
2021/06/24 06:48:41;;;;;;;3.40;2.65;;;19.90;99.90;;;;;;5099441;28;20203;-71
2021/06/24 06:51:10;;;;;;;5.15;3.08;;;19.90;99.90;;;;;;5087540;28;20564;-70
2021/06/24 06:53:37;;;;;;;4.53;3.20;;;19.90;99.90;;;;;;5092332;28;20322;-70
2021/06/24 06:56:05;;;;;;;6.05;3.42;;;19.90;99.90;;;;;;5096000;28;20276;-70
2021/06/24 06:58:31;;;;;;;5.25;3.35;;;19.90;99.90;;;;;;5100383;28;20531;-70
2021/06/24 07:00:58;;;;;;;4.32;3.92;;;19.90;99.90;;;;;;5097738;28;20212;-70
2021/06/24 07:03:25;;;;;;;13.50;3.55;;;19.90;99.90;;;;;;5093830;28;20190;-70
2021/06/24 07:05:51;;;;;;;6.55;5.45;;;19.90;99.90;;;;;;5093186;28;20201;-70
2021/06/24 07:08:20;;;;;;;5.50;4.47;;;19.90;99.90;;;;;;5093401;28;20194;-70
2021/06/24 07:10:46;;;;;;;4.65;4.03;;;19.90;99.90;;;;;;5094106;28;20198;-70
2021/06/24 07:13:13;;;;;;;4.65;3.55;;;20.00;99.90;;;;;;5092732;28;20229;-70
2021/06/24 07:15:40;;;;;;;4.63;4.22;;;20.00;99.90;;;;;;5092914;28;20201;-70
2021/06/24 07:18:11;;;;;;;7.10;4.72;;;20.00;99.90;;;;;;5092442;28;20209;-69
2021/06/24 07:20:38;;;;;;;6.32;5.72;;;20.00;99.90;;;;;;5092790;28;20634;-70
2021/06/24 07:23:05;;;;;;;12.75;3.58;;;20.00;99.90;;;;;;5094538;28;20209;-70
2021/06/24 07:25:33;;;;;;;3.88;3.58;;;20.00;99.90;;;;;;5112857;28;20206;-70
2021/06/24 07:28:00;;;;;;;5.35;4.28;;;20.00;99.90;;;;;;5113127;28;20621;-70
2021/06/24 07:30:27;;;;;;;5.95;4.30;;;20.00;99.90;;;;;;5108469;28;20201;-70
2021/06/24 07:32:53;;;;;;;7.13;5.35;;;20.10;99.90;;;;;;5104085;28;20692;-70
2021/06/24 07:35:20;;;;;;;4.32;3.70;;;20.10;99.90;;;;;;5108909;28;20196;-69
2021/06/24 07:37:48;;;;;;;6.00;3.60;;;20.10;99.90;;;;;;5101818;28;20283;-70
2021/06/24 07:40:16;;;;;;;3.67;3.38;;;20.10;99.90;;;;;;5111509;28;20193;-70
2021/06/24 07:42:44;;;;;;;3.15;2.95;;;20.00;99.90;;;;;;5098241;28;20190;-70
2021/06/24 07:45:12;;;;;;;6.45;4.60;;;20.00;99.90;;;;;;5093508;28;20207;-70
2021/06/24 07:47:38;;;;;;;9.60;5.20;;;20.00;99.90;;;;;;5091990;28;20197;-69
2021/06/24 07:50:06;;;;;;;4.20;3.80;;;20.00;99.90;;;;;;5109524;28;20192;-70
2021/06/24 07:52:33;;;;;;;5.20;3.60;;;20.00;99.90;;;;;;5111681;28;20213;-70
2021/06/24 07:54:59;;;;;;;4.82;3.50;;;20.00;99.90;;;;;;5112510;28;20644;-70
2021/06/24 07:57:28;;;;;;;3.92;3.40;;;20.10;99.90;;;;;;5103556;28;20232;-70
2021/06/24 07:59:57;;;;;;;3.50;3.20;;;20.10;99.90;;;;;;5092073;28;20649;-69
2021/06/24 08:02:23;;;;;;;3.50;3.20;;;20.10;99.90;;;;;;5092351;28;20526;-70
2021/06/24 08:04:50;;;;;;;3.75;3.45;;;20.20;99.90;;;;;;5093509;28;20796;-69
2021/06/24 08:07:17;;;;;;;7.13;3.67;;;20.20;99.90;;;;;;5100533;28;20256;-69
2021/06/24 08:09:43;;;;;;;6.57;5.97;;;20.30;99.90;;;;;;5108412;28;20521;-70
2021/06/24 08:12:11;;;;;;;4.35;3.95;;;20.30;99.90;;;;;;5092714;28;20201;-69
2021/06/24 08:14:37;;;;;;;5.25;3.65;;;20.30;99.90;;;;;;5091723;28;20201;-69
2021/06/24 08:17:05;;;;;;;4.78;3.63;;;20.30;99.90;;;;;;5091687;28;20637;-69
2021/06/24 08:19:32;;;;;;;6.68;3.67;;;20.30;99.90;;;;;;5096384;28;20538;-69
2021/06/24 08:21:59;;;;;;;5.80;4.40;;;20.30;99.90;;;;;;5100132;28;20338;-69
2021/06/24 08:24:26;;;;;;;5.78;3.20;;;20.30;99.90;;;;;;5094024;28;20181;-69
2021/06/24 08:26:53;;;;;;;7.80;4.57;;;20.30;99.90;;;;;;5092586;28;20206;-70
2021/06/24 08:29:20;;;;;;;7.00;5.05;;;20.40;99.90;;;;;;5091470;28;20197;-70
2021/06/24 08:31:47;;;;;;;4.55;3.58;;;20.40;99.90;;;;;;5092549;28;20707;-70
2021/06/24 08:34:15;;;;;;;4.90;3.65;;;20.50;99.90;;;;;;5091177;28;20217;-70
2021/06/24 08:36:42;;;;;;;5.43;3.63;;;20.50;99.90;;;;;;5101028;28;20208;-70
2021/06/24 08:39:09;;;;;;;4.55;3.30;;;20.60;99.90;;;;;;5099680;28;20213;-68
2021/06/24 08:41:37;;;;;;;8.88;4.07;;;20.70;99.90;;;;;;5110566;28;20197;-68
2021/06/24 08:44:06;;;;;;;6.82;4.55;;;20.70;99.90;;;;;;5111656;28;20197;-70
2021/06/24 08:46:33;;;;;;;4.35;3.85;;;20.70;99.90;;;;;;5109561;28;20197;-70
2021/06/24 08:49:01;;;;;;;4.93;3.75;;;20.80;99.90;;;;;;5091692;28;20207;-70
2021/06/24 08:51:30;;;;;;;4.55;4.03;;;20.80;99.90;;;;;;5091323;28;20573;-70
2021/06/24 08:53:57;;;;;;;8.07;3.63;;;20.90;99.90;;;;;;5091144;28;20210;-70
2021/06/24 08:56:23;;;;;;;3.80;3.50;;;21.00;99.90;;;;;;5105477;28;20201;-70
2021/06/24 08:58:52;;;;;;;3.80;3.50;;;21.00;99.90;;;;;;5097813;28;20220;-70
2021/06/24 09:01:19;;;;;;;3.47;3.10;;;21.00;99.90;;;;;;5101883;28;20200;-70
2021/06/24 09:03:47;;;;;;;4.78;3.60;;;21.10;99.90;;;;;;5103038;28;20539;-70
2021/06/24 09:06:15;;;;;;;4.13;3.70;;;21.20;99.90;;;;;;5091567;28;20345;-71
2021/06/24 09:08:45;;;;;;;3.88;3.58;;;21.20;99.90;;;;;;5090412;28;20266;-71
2021/06/24 09:11:15;;;;;;;5.10;4.00;;;21.20;99.90;;;;;;5094773;28;20189;-70
2021/06/24 09:13:43;;;;;;;5.78;4.07;;;21.30;99.90;;;;;;5110244;28;20227;-70
2021/06/24 09:16:23;;;;;;;5.65;3.10;;;21.30;99.90;;;;;;5106326;28;20189;-71
2021/06/24 09:18:50;;;;;;;4.18;3.53;;;21.30;99.90;;;;;;5102759;28;20220;-69
2021/06/24 09:21:20;;;;;;;4.10;3.40;;;21.30;99.90;;;;;;5093546;28;20522;-69
2021/06/24 09:23:50;;;;;;;4.90;4.10;;;21.30;99.90;;;;;;5094533;28;20185;-69
2021/06/24 09:26:17;;;;;;;4.40;4.00;;;21.30;99.90;;;;;;5092431;28;20282;-69
2021/06/24 09:28:47;;;;;;;5.20;3.75;;;21.40;99.90;;;;;;5094466;28;20799;-69
2021/06/24 09:31:25;;;;;;;4.13;3.72;;;21.30;99.90;;;;;;5111964;28;20220;-68
2021/06/24 09:33:52;;;;;;;5.40;4.90;;;21.30;99.90;;;;;;5106994;28;20572;-69
2021/06/24 09:36:35;;;;;;;5.90;4.55;;;21.30;99.90;;;;;;5103426;28;20646;-69
2021/06/24 09:39:06;;;;;;;7.22;3.75;;;21.30;99.90;;;;;;5109971;28;20242;-69
2021/06/24 09:41:33;;;;;;;6.25;4.80;;;21.30;99.90;;;;;;5100732;28;20296;-69
2021/06/24 09:44:00;;;;;;;6.75;4.93;;;21.30;99.90;;;;;;5094118;28;20645;-69
2021/06/24 09:46:30;;;;;;;4.07;3.53;;;21.30;99.90;;;;;;5094375;28;20197;-69
2021/06/24 09:48:59;;;;;;;8.38;5.40;;;21.30;99.90;;;;;;5095525;28;20230;-68
2021/06/24 09:51:27;;;;;;;6.72;4.63;;;21.40;99.90;;;;;;5102933;28;20522;-69
2021/06/24 09:53:57;;;;;;;11.52;5.03;;;21.40;99.90;;;;;;5095020;28;20225;-69
2021/06/24 09:56:32;;;;;;;8.00;4.25;;;21.40;99.90;;;;;;5111105;28;20636;-68
2021/06/24 09:58:59;;;;;;;4.47;3.30;;;21.50;99.90;;;;;;5111908;28;20935;-69
2021/06/24 10:01:28;;;;;;;5.20;4.10;;;21.50;99.90;;;;;;5105246;28;20211;-69
2021/06/24 10:03:56;;;;;;;4.15;3.33;;;21.50;99.90;;;;;;5098400;28;20543;-69
2021/06/24 10:06:24;;;;;;;4.28;3.30;;;21.50;99.90;;;;;;5113100;28;20200;-69
2021/06/24 10:08:51;;;;;;;10.13;4.50;;;21.60;99.90;;;;;;5112988;28;20879;-69
2021/06/24 10:11:18;;;;;;;5.07;4.57;;;21.60;99.90;;;;;;5115100;28;20445;-69
2021/06/24 10:13:46;;;;;;;5.17;3.40;;;21.60;99.90;;;;;;5101946;28;20475;-69
2021/06/24 10:16:15;;;;;;;4.07;3.50;;;21.60;99.90;;;;;;5093394;28;20451;-69
2021/06/24 10:18:45;;;;;;;5.80;5.30;;;21.60;99.90;;;;;;5093713;28;20203;-69
2021/06/24 10:21:14;;;;;;;3.67;3.38;;;21.60;99.90;;;;;;5093920;28;20204;-69
2021/06/24 10:23:46;;;;;;;4.80;4.38;;;21.60;99.90;;;;;;5099890;28;20246;-69
2021/06/24 10:26:14;;;;;;;4.50;4.10;;;21.60;99.90;;;;;;5104813;28;20186;-69
2021/06/24 10:28:41;;;;;;;3.83;3.53;;;21.60;99.90;;;;;;5104823;28;20189;-70
2021/06/24 10:31:36;;;;;;;4.40;4.00;;;21.70;99.90;;;;;;5112545;28;20205;-69
2021/06/24 10:34:04;;;;;;;6.60;5.72;;;21.70;99.90;;;;;;5102549;28;20581;-69
2021/06/24 10:36:31;;;;;;;4.22;3.75;;;21.70;99.90;;;;;;5094779;28;20657;-69
2021/06/24 10:38:59;;;;;;;6.95;5.47;;;21.70;99.90;;;;;;5103202;28;20201;-69
2021/06/24 10:41:26;;;;;;;5.50;5.00;;;21.70;99.90;;;;;;5106455;28;20193;-70
2021/06/24 10:43:53;;;;;;;4.68;4.20;;;21.70;99.90;;;;;;5113737;27;20193;-70
2021/06/24 10:46:21;;;;;;;8.48;5.95;;;21.70;99.90;;;;;;5105784;28;20232;-70
2021/06/24 10:48:50;;;;;;;6.03;4.68;;;21.70;99.90;;;;;;5111292;28;20496;-69
2021/06/24 10:51:17;;;;;;;5.20;4.70;;;21.70;99.90;;;;;;5101251;28;20269;-70
2021/06/24 10:53:53;;;;;;;4.93;4.28;;;21.80;99.90;;;;;;5113595;28;20248;-71
2021/06/24 10:56:47;;;;;;;4.97;4.55;;;21.80;99.90;;;;;;5102111;28;20193;-70
2021/06/24 10:59:33;;;;;;;5.15;3.60;;;21.80;99.90;;;;;;5106131;28;20201;-69
2021/06/24 11:02:11;;;;;;;6.80;3.90;;;21.80;99.90;;;;;;5113198;28;20265;-69
2021/06/24 11:04:41;;;;;;;5.53;4.43;;;21.80;99.90;;;;;;5112764;28;20194;-69
2021/06/24 11:07:22;;;;;;;4.30;3.83;;;21.90;99.90;;;;;;5092547;28;20213;-69
2021/06/24 11:10:20;;;;;;;6.88;6.05;;;21.90;99.90;;;;;;5091892;28;20205;-71
2021/06/24 11:13:02;;;;;;;4.25;3.85;;;21.90;99.90;;;;;;5086546;28;20209;-69
2021/06/24 11:15:49;;;;;;;5.13;4.63;;;21.90;99.90;;;;;;5100146;28;20221;-69
2021/06/24 11:18:49;;;;;;;6.82;6.18;;;21.90;99.90;;;;;;5105858;28;20201;-69
2021/06/24 11:21:36;;;;;;;8.27;6.00;;;22.00;99.90;;;;;;5111336;28;20593;-69
2021/06/24 11:24:14;;;;;;;7.20;5.80;;;22.00;99.90;;;;;;5096501;28;20201;-69
2021/06/24 11:26:43;;;;;;;3.38;3.08;;;22.00;99.90;;;;;;5103441;28;20201;-70
2021/06/24 11:29:25;;;;;;;5.57;4.33;;;22.00;99.90;;;;;;5112175;28;20834;-70
2021/06/24 11:31:56;;;;;;;5.20;4.47;;;22.00;99.90;;;;;;5097833;28;20462;-70
2021/06/24 11:34:33;;;;;;;5.75;4.40;;;22.10;99.90;;;;;;5092597;28;20553;-68
2021/06/24 11:37:03;;;;;;;5.20;4.70;;;22.10;99.90;;;;;;5095468;28;20184;-69
2021/06/24 11:39:33;;;;;;;3.47;3.17;;;22.10;99.90;;;;;;5111795;28;20190;-69
2021/06/24 11:42:02;;;;;;;5.22;3.80;;;22.20;99.90;;;;;;5110417;28;20196;-69
2021/06/24 11:44:30;;;;;;;4.70;3.67;;;22.20;99.90;;;;;;5112654;28;20204;-69
2021/06/24 11:46:59;;;;;;;6.63;6.10;;;22.20;99.90;;;;;;5092554;28;20259;-69
2021/06/24 11:49:35;;;;;;;4.10;3.70;;;22.20;99.90;;;;;;5092300;28;20197;-68
2021/06/24 12:00:42;;;;;;;5.63;4.32;;;22.20;99.90;;;;;;5093340;28;20274;-69
2021/06/24 12:03:18;;;;;;;7.43;6.45;;;22.20;99.90;;;;;;5100149;28;20207;-69
2021/06/24 12:05:51;;;;;;;5.25;4.30;;;22.20;99.90;;;;;;5102529;28;20181;-70
2021/06/24 12:08:23;;;;;;;8.63;7.28;;;22.20;99.90;;;;;;5090956;28;20194;-70
2021/06/24 12:10:50;;;;;;;6.15;4.82;;;22.20;99.90;;;;;;5091748;28;20206;-69
2021/06/24 12:13:31;;;;;;;6.80;5.90;;;22.10;99.90;;;;;;5111217;28;20664;-70
2021/06/24 12:15:59;;;;;;;5.90;5.30;;;22.10;99.90;;;;;;5105016;28;20434;-70
2021/06/24 12:18:34;;;;;;;8.25;6.70;;;22.10;99.90;;;;;;5105436;28;20270;-70
2021/06/24 12:21:06;;;;;;;4.72;4.35;;;22.10;99.90;;;;;;5105243;28;20193;-70
2021/06/24 12:23:41;;;;;;;4.90;4.50;;;22.10;99.90;;;;;;5102560;28;20194;-70
2021/06/24 12:26:08;;;;;;;5.55;4.15;;;22.10;99.90;;;;;;5108409;28;20434;-71
2021/06/24 12:28:34;;;;;;;5.43;4.90;;;22.10;99.90;;;;;;5097334;28;20197;-70
2021/06/24 12:31:02;;;;;;;6.88;5.22;;;22.20;99.90;;;;;;5092470;28;20211;-70
2021/06/24 12:33:29;;;;;;;8.82;5.38;;;22.20;99.90;;;;;;5091877;28;20512;-70
2021/06/24 12:35:57;;;;;;;6.72;5.10;;;22.20;99.90;;;;;;5091559;28;20199;-70
2021/06/24 12:38:26;;;;;;;5.45;4.95;;;22.20;99.90;;;;;;5091366;28;20201;-70
2021/06/24 12:40:55;;;;;;;5.80;5.17;;;22.20;99.90;;;;;;5103974;28;20201;-70
2021/06/24 12:43:23;;;;;;;6.80;5.10;;;22.20;99.90;;;;;;5105534;28;20443;-71
2021/06/24 12:45:53;;;;;;;6.43;5.87;;;22.20;99.90;;;;;;5097804;28;20508;-70
2021/06/24 12:48:33;;;;;;;6.72;6.03;;;22.20;99.90;;;;;;5110180;28;20547;-70
2021/06/24 12:51:02;;;;;;;9.63;7.60;;;22.20;99.90;;;;;;5110775;28;20353;-71
2021/06/24 12:53:31;;;;;;;7.50;6.80;;;22.20;99.90;;;;;;5101637;28;20394;-70
2021/06/24 12:55:59;;;;;;;7.50;5.70;;;22.30;99.90;;;;;;5100566;27;20488;-71
2021/06/24 12:58:35;;;;;;;7.28;6.18;;;22.30;99.90;;;;;;5103798;28;20221;-70
2021/06/24 13:01:09;;;;;;;6.47;5.90;;;22.30;99.90;;;;;;5110432;28;20199;-70